Urb Royal Gdns, Puerto Rico
Current Conditions -  °F | °C
As of 11:56 PM on Thursday 30 Oct 2014 (Local Time) from TJSJ Reporting Station
Scattered Clouds Scattered Clouds  
Wind Chill: 79°   Ceiling: Unl
Heat Index: 83°   Visibility: 10mi
Dew Point: 77°   Wind: 5mph
Humidity: 94%   Direction: 230°SW
Pressure: 29.85"   Gusts: NA
Location:  18.1783°N, 66.1111°W
Report Text: TJSJ 310356Z 23004KT 10SM FEW045 SCT075 26/25 A2985 RMK AO2 SLP106 OCNL LTGIC NW CB DSNT NW T02610250 403110256
Loading
Personal Weather Stations






























Interactive Weather Map
Tropical Storm Tracking
New forecast layout! Learn more

10-Day Weather Forecast

Advertisements
Track Severe Weather on mobile